Time;durP1;ratioP1;P1;durP2;ratioP2;P2;SDS_P1;SDS_P2;PMS_P1;PMS_P2;Temp;Humidity;BMP_temperature;BMP_pressure;BME280_temperature;BME280_humidity;BME280_pressure;Samples;Min_cycle;Max_cycle;Signal;HPM_P1;HPM_P2
2021/08/23 00:00:57;;;;;;;4.58;2.70;;;;;;;11.24;96.43;101190.69;1655482;85;20960;-40
2021/08/23 00:03:24;;;;;;;6.33;2.75;;;;;;;11.25;96.31;101195.45;1696911;83;21822;-39
2021/08/23 00:05:51;;;;;;;5.20;2.80;;;;;;;11.24;96.30;101199.76;1696882;84;20982;-40
2021/08/23 00:08:19;;;;;;;4.75;2.60;;;;;;;11.24;96.17;101197.59;1685036;84;20988;-39
2021/08/23 00:10:45;;;;;;;4.08;2.77;;;;;;;11.24;95.88;101197.59;1681866;84;21809;-41
2021/08/23 00:13:12;;;;;;;4.60;2.70;;;;;;;11.23;95.84;101199.76;1689729;83;21030;-40
2021/08/23 00:15:40;;;;;;;2.70;2.40;;;;;;;11.21;95.58;101201.93;1670634;84;20933;-40
2021/08/23 00:18:08;;;;;;;3.25;2.30;;;;;;;11.20;95.27;101199.37;1725723;82;20987;-41
2021/08/23 00:20:50;;;;;;;3.75;2.60;;;;;;;11.19;95.20;101195.91;1671755;83;21050;-40
2021/08/23 00:23:16;;;;;;;5.03;2.90;;;;;;;11.17;95.05;101202.84;1720900;82;21152;-41
2021/08/23 00:25:42;;;;;;;5.58;2.40;;;;;;;11.15;95.09;101206.33;1720069;82;20940;-40
2021/08/23 00:28:12;;;;;;;2.83;2.37;;;;;;;11.12;94.93;101199.44;1718574;82;20992;-40
2021/08/23 00:30:40;;;;;;;5.40;2.70;;;;;;;11.11;95.10;101198.14;1721920;82;21442;-40
2021/08/23 00:33:08;;;;;;;8.65;2.85;;;;;;;11.08;95.47;101200.34;1681325;83;20983;-39
2021/08/23 00:35:34;;;;;;;6.28;2.42;;;;;;;11.06;95.77;101202.93;1725544;82;21752;-40
2021/08/23 00:38:01;;;;;;;3.98;2.62;;;;;;;11.05;95.91;101197.78;1722433;82;20999;-40
2021/08/23 00:40:27;;;;;;;8.60;2.33;;;;;;;11.02;96.22;101202.98;1655869;85;20947;-40
2021/08/23 00:42:55;;;;;;;3.85;2.80;;;;;;;10.99;96.42;101196.52;1719745;82;21027;-41
2021/08/23 00:45:22;;;;;;;8.15;2.75;;;;;;;10.96;96.69;101204.31;1730771;82;20912;-40
2021/08/23 00:47:49;;;;;;;4.12;2.33;;;;;;;10.93;97.05;101207.35;1717397;82;21332;-41
2021/08/23 00:50:17;;;;;;;7.12;2.80;;;;;;;10.93;97.27;101209.09;1717255;82;20936;-40
2021/08/23 00:52:44;;;;;;;9.65;2.70;;;;;;;10.91;97.54;101205.21;1723644;82;20975;-40
2021/08/23 00:55:11;;;;;;;6.62;2.75;;;;;;;10.90;97.76;101205.24;1724803;81;21054;-41
2021/08/23 00:57:40;;;;;;;3.85;2.62;;;;;;;10.87;97.96;101202.23;1677903;83;20967;-39
2021/08/23 01:00:08;;;;;;;4.35;2.60;;;;;;;10.86;98.16;101203.09;1727970;82;21057;-39
2021/08/23 01:03:13;;;;;;;10.00;2.62;;;;;;;10.84;98.19;101201.38;1720244;82;20960;-39
2021/08/23 01:05:40;;;;;;;5.97;2.55;;;;;;;10.84;98.42;101202.67;1723184;82;20976;-39
2021/08/23 01:08:35;;;;;;;6.45;2.65;;;;;;;10.81;98.63;101198.40;1727960;82;20968;-40
2021/08/23 01:11:06;;;;;;;8.83;2.67;;;;;;;10.80;98.61;101195.80;1712096;82;21028;-40
2021/08/23 01:13:34;;;;;;;12.30;3.00;;;;;;;10.77;98.90;101196.70;1703006;82;21546;-39
2021/08/23 01:16:00;;;;;;;14.07;3.10;;;;;;;10.76;99.19;101195.83;1680941;81;21026;-39
2021/08/23 01:18:29;;;;;;;9.45;3.12;;;;;;;10.76;99.67;101193.69;1727027;82;20928;-39
2021/08/23 01:20:59;;;;;;;22.25;3.90;;;;;;;10.77;100.00;101201.44;1737252;81;21031;-39
2021/08/23 01:23:23;;;;;;;18.75;4.33;;;;;;;10.78;100.00;101203.15;1720222;81;20971;-39
2021/08/23 01:25:50;;;;;;;17.77;3.40;;;;;;;10.81;100.00;101201.41;1723303;81;21086;-40
2021/08/23 01:28:39;;;;;;;17.77;3.37;;;;;;;10.83;100.00;101202.25;1731327;81;20940;-39
2021/08/23 01:31:38;;;;;;;19.37;3.22;;;;;;;10.84;100.00;101202.25;1737362;81;21003;-40
2021/08/23 01:34:05;;;;;;;35.70;4.55;;;;;;;10.85;100.00;101203.97;1717741;81;20943;-40
2021/08/23 01:36:33;;;;;;;22.52;4.37;;;;;;;10.86;100.00;101205.69;1735550;81;20975;-39
2021/08/23 01:39:00;;;;;;;30.85;4.80;;;;;;;10.88;100.00;101203.10;1738926;81;21077;-39
2021/08/23 01:41:26;;;;;;;30.75;5.30;;;;;;;10.86;100.00;101198.34;1721507;81;20991;-39
2021/08/23 01:43:53;;;;;;;25.65;4.83;;;;;;;10.88;100.00;101192.29;1720442;81;20988;-40
2021/08/23 01:46:19;;;;;;;31.57;6.30;;;;;;;10.89;100.00;101196.59;1717919;81;20991;-39
2021/08/23 01:48:50;;;;;;;34.63;5.85;;;;;;;10.87;100.00;101193.16;1730591;81;20948;-39
2021/08/23 01:51:14;;;;;;;32.75;4.90;;;;;;;10.88;100.00;101195.33;1729609;81;21165;-39
2021/08/23 01:53:41;;;;;;;28.20;4.58;;;;;;;10.86;100.00;101193.16;1724893;81;20967;-39
2021/08/23 01:56:08;;;;;;;24.70;5.00;;;;;;;10.82;100.00;101194.94;1720736;81;20983;-40
2021/08/23 01:58:34;;;;;;;25.43;4.55;;;;;;;10.80;100.00;101191.50;1727887;81;21509;-39
2021/08/23 02:01:01;;;;;;;42.83;5.95;;;;;;;10.78;100.00;101194.54;1722821;81;21497;-40
2021/08/23 02:03:27;;;;;;;38.55;5.95;;;;;;;10.76;100.00;101193.69;1720504;81;21099;-45
2021/08/23 02:05:54;;;;;;;42.62;7.08;;;;;;;10.73;100.00;101192.39;1722068;81;20932;-39
2021/08/23 02:08:20;;;;;;;44.58;6.70;;;;;;;10.71;100.00;101197.60;1729549;81;21014;-40
2021/08/23 02:10:48;;;;;;;27.25;4.62;;;;;;;10.73;100.00;101192.39;1726197;82;20987;-40
2021/08/23 02:13:14;;;;;;;28.85;4.87;;;;;;;10.76;100.00;101190.66;1682863;83;20995;-40
2021/08/23 02:15:42;;;;;;;22.62;4.95;;;;;;;10.77;100.00;101190.23;1721220;81;21070;-40
2021/08/23 02:18:09;;;;;;;7.92;3.37;;;;;;;10.77;100.00;101192.38;1689818;83;21027;-39
2021/08/23 02:20:35;;;;;;;8.50;3.02;;;;;;;10.80;100.00;101197.09;1690366;84;21048;-40
2021/08/23 02:23:02;;;;;;;5.92;2.85;;;;;;;10.82;100.00;101201.41;1683467;84;21714;-39
2021/08/23 02:25:28;;;;;;;4.37;2.65;;;;;;;10.84;100.00;101200.95;1659685;85;21647;-39
2021/08/23 02:27:55;;;;;;;6.78;3.10;;;;;;;10.81;100.00;101200.98;1686672;85;21192;-39
2021/08/23 02:30:22;;;;;;;11.83;3.52;;;;;;;10.79;100.00;101202.73;1690935;84;22135;-39
2021/08/23 02:32:50;;;;;;;9.60;3.25;;;;;;;10.78;100.00;101207.03;1680430;84;21601;-40
2021/08/23 02:35:17;;;;;;;6.62;2.67;;;;;;;10.76;100.00;101207.48;1676317;84;20943;-39
2021/08/23 02:37:44;;;;;;;6.85;3.08;;;;;;;10.75;100.00;101208.36;1691493;84;21520;-40
2021/08/23 02:40:12;;;;;;;7.28;2.85;;;;;;;10.79;100.00;101213.09;1673951;84;21551;-40
2021/08/23 02:42:39;;;;;;;8.60;3.22;;;;;;;10.81;100.00;101207.46;1645710;84;21020;-44
2021/08/23 02:45:08;;;;;;;6.55;2.58;;;;;;;10.81;100.00;101213.94;1668048;84;21573;-41
2021/08/23 02:47:36;;;;;;;4.95;2.58;;;;;;;10.81;100.00;101211.77;1688831;83;21282;-39
2021/08/23 02:50:04;;;;;;;5.55;2.40;;;;;;;10.80;100.00;101210.92;1652851;85;20909;-39
2021/08/23 02:52:31;;;;;;;6.12;2.75;;;;;;;10.78;100.00;101214.80;1681199;84;21866;-39
2021/08/23 02:54:59;;;;;;;6.12;2.87;;;;;;;10.76;100.00;101214.41;1652623;84;20999;-39
2021/08/23 02:57:26;;;;;;;8.30;2.77;;;;;;;10.72;100.00;101217.45;1693588;83;20967;-39
2021/08/23 02:59:52;;;;;;;8.03;3.02;;;;;;;10.68;100.00;101227.41;1670102;84;21131;-39
2021/08/23 03:02:19;;;;;;;17.35;3.50;;;;;;;10.63;100.00;101228.72;1674323;84;21580;-39
2021/08/23 03:04:45;;;;;;;65.20;4.45;;;;;;;10.59;100.00;101231.33;1675872;84;21125;-39
2021/08/23 03:07:11;;;;;;;53.50;5.92;;;;;;;10.57;100.00;101221.00;1698190;83;21006;-40
2021/08/23 03:09:38;;;;;;;210.15;9.35;;;;;;;10.58;100.00;101217.95;1663991;84;21137;-40
2021/08/23 03:12:06;;;;;;;79.65;5.08;;;;;;;10.60;100.00;101227.45;1690221;84;21043;-40
2021/08/23 03:14:32;;;;;;;70.52;5.28;;;;;;;10.64;100.00;101221.83;1696140;83;21572;-39
2021/08/23 03:16:58;;;;;;;64.55;5.78;;;;;;;10.68;100.00;101217.05;1689393;83;21231;-39
2021/08/23 03:19:25;;;;;;;16.50;3.37;;;;;;;10.75;100.00;101221.75;1668571;84;22493;-39
2021/08/23 03:21:51;;;;;;;7.62;3.12;;;;;;;10.80;100.00;101224.30;1660020;85;21019;-39
2021/08/23 03:24:18;;;;;;;15.00;3.33;;;;;;;10.89;100.00;101225.54;1674515;84;21054;-40
2021/08/23 03:26:45;;;;;;;10.05;3.10;;;;;;;10.96;100.00;101227.63;1675724;84;20996;-40
2021/08/23 03:29:12;;;;;;;13.05;2.80;;;;;;;11.00;100.00;101223.71;1654629;84;21147;-40
2021/08/23 03:31:40;;;;;;;6.90;3.02;;;;;;;11.04;100.00;101229.73;1682855;84;20963;-40
2021/08/23 03:34:12;;;;;;;5.67;2.67;;;;;;;11.10;100.00;101226.22;1672967;84;21060;-40
2021/08/23 03:36:36;;;;;;;4.35;2.52;;;;;;;11.15;100.00;101222.72;1677632;84;21067;-40
2021/08/23 03:39:04;;;;;;;4.45;2.70;;;;;;;11.20;100.00;101220.95;1670861;84;21028;-40
2021/08/23 03:41:30;;;;;;;4.62;2.27;;;;;;;11.30;100.00;101227.36;1678503;84;21162;-40
2021/08/23 03:43:57;;;;;;;7.03;2.37;;;;;;;11.39;100.00;101221.23;1669792;84;20972;-40
2021/08/23 03:46:24;;;;;;;2.40;2.20;;;;;;;11.47;100.00;101221.56;1668624;84;21033;-41
2021/08/23 03:48:50;;;;;;;4.40;2.20;;;;;;;11.55;100.00;101224.53;1658933;85;20989;-39
2021/08/23 03:51:17;;;;;;;13.43;2.50;;;;;;;11.66;100.00;101227.02;1670138;84;20913;-39
2021/08/23 03:53:43;;;;;;;4.78;2.30;;;;;;;11.76;100.00;101222.14;1680256;84;21115;-40
2021/08/23 03:56:10;;;;;;;4.08;2.42;;;;;;;11.89;100.00;101234.53;1673767;84;22414;-40
2021/08/23 03:58:37;;;;;;;14.75;2.85;;;;;;;12.03;100.00;101233.98;1681020;84;21006;-39
2021/08/23 04:01:03;;;;;;;25.45;4.75;;;;;;;12.19;100.00;101229.87;1675970;84;21008;-40
2021/08/23 04:03:30;;;;;;;54.35;6.12;;;;;;;12.34;100.00;101228.80;1671071;84;20985;-40
2021/08/23 04:05:57;;;;;;;6.97;2.80;;;;;;;12.53;100.00;101226.84;1681644;84;21541;-40
2021/08/23 04:08:24;;;;;;;9.03;2.30;;;;;;;12.76;100.00;101222.59;1667397;84;21020;-39
2021/08/23 04:10:50;;;;;;;4.30;2.33;;;;;;;13.02;100.00;101224.38;1675188;84;20939;-40
2021/08/23 04:13:17;;;;;;;3.72;2.47;;;;;;;13.30;100.00;101231.70;1685190;84;21285;-40
2021/08/23 04:15:47;;;;;;;3.95;2.52;;;;;;;13.55;100.00;101241.23;1722769;82;22179;-40
2021/08/23 04:18:14;;;;;;;3.00;2.30;;;;;;;13.78;100.00;101231.72;1676804;83;23174;-40
2021/08/23 04:20:41;;;;;;;3.27;2.15;;;;;;;14.04;98.02;101233.37;1723525;81;21602;-40
2021/08/23 04:23:07;;;;;;;4.03;2.20;;;;;;;14.31;96.51;101231.06;1722964;82;21537;-40
2021/08/23 04:25:34;;;;;;;5.80;2.12;;;;;;;14.61;94.58;101226.93;1677737;83;21038;-41
2021/08/23 04:28:00;;;;;;;2.85;2.65;;;;;;;14.86;91.38;101225.08;1710618;82;20941;-40
2021/08/23 04:30:27;;;;;;;5.65;2.02;;;;;;;15.05;86.94;101227.24;1708679;82;21126;-40
2021/08/23 04:32:53;;;;;;;2.33;2.12;;;;;;;15.24;85.91;101225.02;1679959;83;20968;-40
2021/08/23 04:35:20;;;;;;;6.00;1.98;;;;;;;15.44;83.42;101223.19;1711239;82;20979;-41
2021/08/23 04:37:46;;;;;;;4.90;2.10;;;;;;;15.58;78.98;101225.88;1715175;82;21048;-40
2021/08/23 04:40:13;;;;;;;2.83;2.15;;;;;;;15.66;76.64;101229.13;1684271;83;20983;-40
2021/08/23 04:42:40;;;;;;;3.17;2.30;;;;;;;15.73;75.87;101228.05;1711225;82;21199;-40
2021/08/23 04:45:07;;;;;;;1.95;1.85;;;;;;;15.85;76.47;101224.24;1703109;82;20976;-40
2021/08/23 04:47:34;;;;;;;2.52;2.15;;;;;;;16.04;74.78;101228.98;1710273;82;21431;-40
2021/08/23 04:50:00;;;;;;;6.80;1.92;;;;;;;16.24;73.82;101225.77;1680396;83;21540;-40
2021/08/23 04:52:27;;;;;;;6.20;2.58;;;;;;;16.42;72.60;101226.99;1716671;82;21142;-40
2021/08/23 04:54:53;;;;;;;4.12;2.47;;;;;;;16.52;69.40;101231.45;1716793;82;21129;-40
2021/08/23 04:57:20;;;;;;;7.45;2.30;;;;;;;16.53;69.77;101229.24;1711554;82;20972;-40
2021/08/23 04:59:47;;;;;;;8.45;2.62;;;;;;;16.58;69.57;101233.03;1711565;82;20936;-40
2021/08/23 05:02:13;;;;;;;5.12;2.40;;;;;;;16.70;69.11;101223.95;1709230;82;20968;-40
2021/08/23 05:04:39;;;;;;;5.35;2.30;;;;;;;16.81;66.33;101231.01;1719964;82;21206;-40
2021/08/23 05:07:06;;;;;;;6.25;2.67;;;;;;;16.87;65.83;101226.87;1686895;83;21354;-40
2021/08/23 05:09:32;;;;;;;4.85;2.55;;;;;;;16.94;65.71;101228.38;1710536;82;21036;-41
2021/08/23 05:11:59;;;;;;;2.58;2.35;;;;;;;17.02;63.37;101229.91;1710655;82;20938;-40
2021/08/23 05:14:26;;;;;;;5.10;2.45;;;;;;;17.08;62.61;101226.64;1711106;82;20986;-41
2021/08/23 05:16:52;;;;;;;2.67;2.08;;;;;;;17.16;63.96;101230.31;1677315;83;21581;-40
2021/08/23 05:19:20;;;;;;;5.60;2.50;;;;;;;17.26;64.13;101220.83;1708500;82;21091;-40
2021/08/23 05:21:46;;;;;;;6.78;2.60;;;;;;;17.42;64.01;101217.22;1666327;85;22153;-40
2021/08/23 05:24:13;;;;;;;9.20;2.35;;;;;;;17.52;63.27;101222.08;1677088;83;21669;-40
2021/08/23 05:26:40;;;;;;;3.50;2.05;;;;;;;17.50;62.06;101219.14;1703424;82;21201;-39
2021/08/23 05:29:06;;;;;;;5.58;2.62;;;;;;;17.46;62.99;101221.00;1705271;82;21031;-40
2021/08/23 05:31:33;;;;;;;3.58;2.42;;;;;;;17.49;63.71;101225.28;1706053;82;21210;-40
2021/08/23 05:34:00;;;;;;;8.03;3.02;;;;;;;17.52;64.62;101222.08;1701635;82;21131;-40
2021/08/23 05:36:26;;;;;;;4.00;2.60;;;;;;;17.56;65.19;101219.39;1678628;84;20983;-40
2021/08/23 05:38:53;;;;;;;5.92;2.60;;;;;;;17.53;65.08;101218.55;1711211;82;20945;-40
2021/08/23 05:41:20;;;;;;;4.37;2.58;;;;;;;17.51;65.87;101217.77;1718182;82;21007;-40
2021/08/23 05:43:47;;;;;;;3.47;2.62;;;;;;;17.48;65.20;101216.56;1678986;83;21142;-39
2021/08/23 05:46:15;;;;;;;4.47;2.40;;;;;;;17.41;64.85;101219.00;1720397;82;20905;-40
2021/08/23 05:48:42;;;;;;;4.72;2.35;;;;;;;17.34;65.19;101216.21;1712379;82;21553;-40
2021/08/23 05:51:14;;;;;;;12.70;2.80;;;;;;;17.32;65.81;101212.80;1671394;83;21529;-40
2021/08/23 05:53:38;;;;;;;6.62;2.80;;;;;;;17.33;65.37;101217.13;1693674;83;21033;-41
2021/08/23 05:56:05;;;;;;;8.55;2.87;;;;;;;17.32;65.16;101219.34;1706721;82;22586;-41
2021/08/23 05:58:31;;;;;;;5.50;2.40;;;;;;;17.31;66.76;101219.78;1680063;83;20956;-39
2021/08/23 06:00:57;;;;;;;12.93;2.75;;;;;;;17.35;67.16;101220.53;1714080;82;20925;-39
2021/08/23 06:03:23;;;;;;;4.70;2.65;;;;;;;17.41;67.48;101218.14;1714232;82;20971;-39
2021/08/23 06:05:50;;;;;;;6.25;2.30;;;;;;;17.48;65.91;101221.80;1677321;83;21023;-39
2021/08/23 06:08:16;;;;;;;2.75;2.47;;;;;;;17.57;65.62;101221.09;1710407;82;21103;-39
2021/08/23 06:10:46;;;;;;;3.98;2.05;;;;;;;17.65;66.03;101225.59;1710221;82;20960;-40
2021/08/23 06:13:12;;;;;;;4.80;2.05;;;;;;;17.75;66.48;101224.80;1693774;82;21035;-40
2021/08/23 06:15:39;;;;;;;9.08;2.30;;;;;;;17.85;65.70;101225.33;1705538;82;21059;-40
2021/08/23 06:18:05;;;;;;;3.33;2.02;;;;;;;17.97;64.92;101227.47;1691704;83;21023;-40
2021/08/23 06:20:33;;;;;;;3.75;2.27;;;;;;;18.13;64.43;101229.09;1705296;82;21790;-40
2021/08/23 06:23:00;;;;;;;2.55;2.35;;;;;;;18.27;64.87;101227.72;1712138;82;21527;-40
2021/08/23 06:25:27;;;;;;;4.92;2.12;;;;;;;18.37;64.19;101223.81;1678600;83;20940;-40
2021/08/23 06:27:54;;;;;;;6.70;2.42;;;;;;;18.52;64.44;101219.73;1724643;81;20933;-40
2021/08/23 06:30:22;;;;;;;6.45;2.25;;;;;;;18.63;64.85;101216.69;1676957;83;20916;-40
2021/08/23 06:32:48;;;;;;;6.58;2.12;;;;;;;18.80;64.45;101213.37;1710154;82;21890;-40
2021/08/23 06:35:15;;;;;;;4.15;2.12;;;;;;;18.99;65.10;101217.89;1684756;84;21467;-40
2021/08/23 06:37:42;;;;;;;3.22;1.95;;;;;;;19.18;64.03;101212.27;1674662;85;21611;-40
2021/08/23 06:40:10;;;;;;;4.83;3.47;;;;;;;19.36;62.03;101215.87;1713776;82;21533;-40
2021/08/23 06:42:37;;;;;;;4.45;3.47;;;;;;;19.55;60.55;101216.83;1710327;82;21121;-40
2021/08/23 06:45:05;;;;;;;8.83;3.45;;;;;;;19.71;59.58;101211.30;1686601;83;21221;-40
2021/08/23 06:47:34;;;;;;;10.28;2.40;;;;;;;19.86;58.73;101210.22;1709864;82;20969;-41
2021/08/23 06:50:00;;;;;;;6.72;2.45;;;;;;;19.98;59.03;101207.52;1706418;82;21023;-40
2021/08/23 06:52:26;;;;;;;6.83;2.33;;;;;;;20.08;57.09;101213.59;1709108;82;21681;-39
2021/08/23 06:54:53;;;;;;;5.53;2.42;;;;;;;20.21;56.25;101215.19;1695117;83;21732;-40
2021/08/23 06:57:20;;;;;;;3.08;2.15;;;;;;;20.31;55.66;101212.95;1700884;82;21063;-40
2021/08/23 06:59:46;;;;;;;4.47;2.37;;;;;;;20.45;56.29;101216.70;1694067;83;20998;-40
2021/08/23 07:02:12;;;;;;;3.22;2.12;;;;;;;20.57;57.04;101212.63;1683489;83;20971;-40
2021/08/23 07:04:39;;;;;;;5.95;2.87;;;;;;;20.70;57.73;101204.99;1679260;83;21007;-40
2021/08/23 07:07:05;;;;;;;10.70;2.92;;;;;;;20.84;55.91;101212.23;1709086;82;21011;-40
2021/08/23 07:09:33;;;;;;;9.38;3.22;;;;;;;21.00;55.73;101213.63;1678116;83;20957;-40
2021/08/23 07:12:00;;;;;;;5.50;3.02;;;;;;;21.20;55.34;101213.91;1670458;84;21035;-40
2021/08/23 07:14:27;;;;;;;10.43;3.00;;;;;;;21.39;54.28;101212.04;1676141;85;20992;-40
2021/08/23 07:16:53;;;;;;;7.53;3.42;;;;;;;21.58;53.61;101205.81;1683964;83;21078;-40
2021/08/23 07:19:19;;;;;;;8.00;3.10;;;;;;;21.77;53.75;101209.66;1710078;82;20990;-41
2021/08/23 07:21:46;;;;;;;5.10;2.75;;;;;;;21.97;54.17;101207.73;1709418;82;21218;-41
2021/08/23 07:24:13;;;;;;;5.12;2.70;;;;;;;22.14;53.99;101208.11;1706684;82;21016;-40
2021/08/23 07:26:40;;;;;;;4.08;2.50;;;;;;;22.34;52.62;101207.47;1685377;83;20964;-41
2021/08/23 07:29:06;;;;;;;3.50;1.98;;;;;;;22.55;51.43;101205.41;1710491;82;21039;-40
2021/08/23 07:31:32;;;;;;;2.35;1.45;;;;;;;22.74;49.53;101200.41;1712245;82;20916;-41
2021/08/23 07:33:59;;;;;;;7.22;1.90;;;;;;;22.92;46.85;101201.11;1684223;83;21305;-41
2021/08/23 07:36:25;;;;;;;3.62;1.65;;;;;;;23.13;49.10;101206.06;1713366;82;21054;-41
2021/08/23 07:38:52;;;;;;;1.62;1.52;;;;;;;23.27;48.07;101199.52;1684055;83;20971;-39
2021/08/23 07:41:18;;;;;;;2.12;1.42;;;;;;;23.19;45.76;101197.30;1707811;82;20991;-40
2021/08/23 07:43:46;;;;;;;4.22;1.40;;;;;;;23.13;45.66;101202.96;1714676;82;20991;-40
2021/08/23 07:46:12;;;;;;;2.40;1.32;;;;;;;23.17;46.90;101203.15;1713104;82;21221;-42
2021/08/23 07:48:40;;;;;;;2.17;1.50;;;;;;;23.32;45.49;101200.55;1705888;82;20908;-41
2021/08/23 07:51:06;;;;;;;4.33;1.45;;;;;;;23.46;43.80;101204.52;1711404;82;21085;-41
2021/08/23 07:53:34;;;;;;;1.87;1.42;;;;;;;23.52;43.76;101201.50;1711094;82;20963;-40
2021/08/23 07:56:01;;;;;;;1.60;1.50;;;;;;;23.64;46.40;101201.70;1714969;82;20948;-41
2021/08/23 07:58:27;;;;;;;3.30;1.22;;;;;;;23.67;42.59;101201.50;1725112;82;21145;-41
2021/08/23 08:00:53;;;;;;;1.95;1.27;;;;;;;23.65;44.16;101200.75;1699147;83;21042;-41
2021/08/23 08:03:20;;;;;;;3.15;1.40;;;;;;;23.87;44.95;101200.70;1715991;82;21039;-41
2021/08/23 08:05:46;;;;;;;2.37;1.67;;;;;;;24.17;43.13;101197.94;1709495;81;20959;-41
2021/08/23 08:08:13;;;;;;;2.60;1.50;;;;;;;24.44;42.73;101202.38;1708845;82;20975;-40
2021/08/23 08:10:40;;;;;;;5.72;1.62;;;;;;;24.71;42.72;101193.56;1678738;84;21080;-41
2021/08/23 08:13:07;;;;;;;7.20;1.35;;;;;;;24.82;40.80;101192.87;1664540;84;20992;-41
2021/08/23 08:15:34;;;;;;;2.67;1.27;;;;;;;24.93;39.00;101189.50;1706718;82;21592;-41
2021/08/23 08:18:01;;;;;;;4.78;2.20;;;;;;;25.23;38.07;101185.70;1727898;82;20948;-41
2021/08/23 08:20:27;;;;;;;2.58;1.37;;;;;;;25.45;37.15;101186.85;1702010;82;21042;-41
2021/08/23 08:22:55;;;;;;;2.02;1.42;;;;;;;25.63;36.48;101182.94;1688960;83;21188;-42
2021/08/23 08:25:22;;;;;;;4.40;1.62;;;;;;;25.76;36.03;101174.95;1700073;83;21058;-41
2021/08/23 08:27:49;;;;;;;15.50;1.52;;;;;;;25.99;37.35;101181.73;1695307;83;20991;-41
2021/08/23 08:30:17;;;;;;;2.33;1.32;;;;;;;26.24;35.31;101178.14;1681195;84;21031;-41
2021/08/23 08:32:45;;;;;;;5.75;1.27;;;;;;;26.40;34.65;101169.06;1683070;84;20980;-40
2021/08/23 08:35:11;;;;;;;1.85;1.32;;;;;;;26.45;34.23;101174.03;1661858;85;21564;-41
2021/08/23 08:37:39;;;;;;;2.75;1.30;;;;;;;26.52;32.81;101160.66;1685801;84;21520;-42
2021/08/23 08:40:08;;;;;;;4.60;0.98;;;;;;;26.53;33.36;101161.02;1683155;84;21061;-41
2021/08/23 08:42:35;;;;;;;4.03;1.25;;;;;;;26.74;33.46;101164.34;1688212;84;21003;-42
2021/08/23 08:45:03;;;;;;;7.05;1.40;;;;;;;26.95;32.18;101168.05;1673659;85;21000;-41
2021/08/23 08:47:29;;;;;;;4.33;1.55;;;;;;;26.98;32.25;101165.62;1679400;84;21081;-41
2021/08/23 08:50:00;;;;;;;4.37;2.30;;;;;;;26.93;33.59;101163.34;1657033;85;21030;-40
2021/08/23 08:52:26;;;;;;;3.90;1.75;;;;;;;27.10;31.63;101153.20;1675633;85;21016;-41
2021/08/23 08:54:54;;;;;;;3.08;1.40;;;;;;;27.23;32.32;101157.93;1680241;84;20980;-40
2021/08/23 08:57:21;;;;;;;3.35;1.10;;;;;;;27.42;32.05;101156.48;1640159;86;20976;-40
2021/08/23 08:59:47;;;;;;;2.72;1.42;;;;;;;27.57;30.63;101160.23;1674643;84;21438;-41
2021/08/23 09:02:15;;;;;;;1.52;1.10;;;;;;;27.65;30.91;101158.66;1643234;85;20999;-43
2021/08/23 09:04:44;;;;;;;4.55;1.00;;;;;;;27.81;30.15;101155.59;1677310;84;21004;-41
2021/08/23 09:07:13;;;;;;;1.27;1.00;;;;;;;28.04;29.42;101148.03;1644620;85;21585;-41
2021/08/23 09:09:39;;;;;;;3.45;1.20;;;;;;;28.14;29.53;101148.12;1678899;85;21067;-41
2021/08/23 09:12:09;;;;;;;1.95;1.27;;;;;;;28.02;29.90;101149.97;1647002;85;21192;-41
2021/08/23 09:14:52;;;;;;;1.85;1.20;;;;;;;27.94;29.54;101140.81;1681627;85;21033;-41
2021/08/23 09:17:22;;;;;;;2.77;1.32;;;;;;;27.97;30.03;101139.23;1677417;84;21080;-41
2021/08/23 09:20:00;;;;;;;1.92;1.07;;;;;;;28.20;29.83;101141.02;1667994;85;21076;-42
2021/08/23 09:22:27;;;;;;;1.32;1.00;;;;;;;28.28;29.15;101141.21;1665311;85;21000;-42
2021/08/23 09:24:55;;;;;;;2.67;0.90;;;;;;;28.30;29.62;101137.94;1690323;83;21128;-41
2021/08/23 09:27:22;;;;;;;1.20;1.10;;;;;;;28.42;29.87;101135.20;1688827;84;20926;-42
2021/08/23 09:30:01;;;;;;;5.25;1.65;;;;;;;28.49;28.02;101137.22;1688288;84;21127;-41
2021/08/23 09:32:38;;;;;;;2.90;1.30;;;;;;;28.57;27.29;101133.09;1687109;84;20980;-42
2021/08/23 09:35:07;;;;;;;2.25;1.15;;;;;;;28.66;28.40;101130.46;1683376;85;21820;-42
2021/08/23 09:37:33;;;;;;;3.02;1.00;;;;;;;28.61;28.42;101135.34;1661377;84;21340;-42
2021/08/23 09:40:12;;;;;;;2.40;1.20;;;;;;;28.73;27.43;101132.63;1663903;84;21343;-42
2021/08/23 09:42:39;;;;;;;1.95;1.00;;;;;;;28.79;28.15;101138.78;1665662;84;20995;-41
2021/08/23 09:45:18;;;;;;;5.12;1.10;;;;;;;29.04;27.33;101130.01;1660698;86;21036;-41
2021/08/23 09:47:44;;;;;;;1.72;1.20;;;;;;;29.17;26.83;101135.11;1671886;84;21021;-42
2021/08/23 09:50:17;;;;;;;4.55;1.10;;;;;;;29.39;26.62;101131.39;1691193;84;21167;-42
2021/08/23 09:52:45;;;;;;;1.02;0.98;;;;;;;29.54;26.14;101141.22;1681034;83;20939;-42
2021/08/23 09:55:12;;;;;;;2.08;1.10;;;;;;;29.43;25.32;101132.86;1704859;83;21524;-41
2021/08/23 09:57:41;;;;;;;1.42;1.07;;;;;;;29.35;25.09;101133.50;1690470;83;21512;-41
2021/08/23 10:00:12;;;;;;;2.87;1.25;;;;;;;29.41;27.07;101132.63;1698707;83;20974;-41
2021/08/23 10:02:47;;;;;;;4.53;1.07;;;;;;;29.55;27.40;101138.90;1691126;84;21168;-41
2021/08/23 10:05:16;;;;;;;2.62;1.22;;;;;;;29.54;24.98;101128.73;1691843;83;20963;-41
2021/08/23 10:07:44;;;;;;;0.80;0.80;;;;;;;29.23;24.91;101131.43;1692829;83;21532;-41
2021/08/23 10:10:10;;;;;;;2.98;1.40;;;;;;;28.95;24.39;101121.84;1673085;84;21520;-41
2021/08/23 10:12:38;;;;;;;5.10;1.30;;;;;;;28.70;25.64;101127.06;1665371;84;21050;-41
2021/08/23 10:15:06;;;;;;;5.30;1.10;;;;;;;28.54;26.41;101135.01;1673464;85;21499;-42
2021/08/23 10:17:37;;;;;;;2.80;1.30;;;;;;;28.56;26.79;101130.91;1673839;85;21052;-41
2021/08/23 10:20:01;;;;;;;3.37;1.00;;;;;;;28.71;26.62;101129.25;1662096;85;21040;-41
2021/08/23 10:22:28;;;;;;;2.65;1.20;;;;;;;28.76;25.96;101129.19;1718585;83;21023;-41
2021/08/23 10:24:54;;;;;;;6.80;1.32;;;;;;;28.85;26.40;101130.26;1701943;83;21019;-41
2021/08/23 10:27:23;;;;;;;4.55;1.45;;;;;;;28.96;26.59;101124.87;1718576;83;20971;-41
2021/08/23 10:29:50;;;;;;;1.32;1.22;;;;;;;29.10;25.97;101134.32;1682320;83;21019;-42
2021/08/23 10:32:18;;;;;;;2.27;1.30;;;;;;;29.33;24.26;101138.60;1679069;84;20977;-41
2021/08/23 10:34:45;;;;;;;1.20;1.02;;;;;;;29.47;25.93;101136.94;1673711;85;20992;-42
2021/08/23 10:37:17;;;;;;;1.42;1.30;;;;;;;29.57;25.85;101137.45;1670427;85;21612;-41
2021/08/23 10:39:44;;;;;;;2.08;1.22;;;;;;;29.56;27.04;101137.09;1664507;85;21153;-41
2021/08/23 10:42:13;;;;;;;2.92;1.47;;;;;;;29.56;26.09;101138.42;1680845;84;21103;-41
2021/08/23 10:44:41;;;;;;;3.37;1.57;;;;;;;29.71;24.82;101144.21;1680541;84;21000;-42
2021/08/23 10:47:14;;;;;;;2.87;1.17;;;;;;;29.59;24.39;101139.48;1657148;85;20964;-41
2021/08/23 10:49:46;;;;;;;1.67;1.35;;;;;;;29.30;25.63;101141.55;1681475;85;21004;-41
2021/08/23 10:52:15;;;;;;;5.33;1.72;;;;;;;29.02;27.21;101138.63;1683097;84;22243;-41
2021/08/23 10:54:46;;;;;;;1.62;1.52;;;;;;;28.79;26.75;101150.77;1656056;84;20947;-41
2021/08/23 10:57:13;;;;;;;2.15;1.50;;;;;;;28.52;26.68;101141.45;1718564;82;20976;-41
2021/08/23 10:59:46;;;;;;;6.17;1.77;;;;;;;28.20;29.50;101147.66;1718189;83;21030;-41
2021/08/23 11:02:32;;;;;;;6.72;2.65;;;;;;;28.09;30.81;101142.70;1659474;84;21035;-42
2021/08/23 11:05:14;;;;;;;5.62;3.58;;;;;;;28.25;30.45;101135.64;1667201;85;21148;-41
2021/08/23 11:07:43;;;;;;;3.42;2.40;;;;;;;28.39;28.06;101143.80;1681300;84;20960;-41
2021/08/23 11:10:20;;;;;;;2.87;2.60;;;;;;;28.42;27.01;101141.38;1648126;86;21010;-42
2021/08/23 11:12:55;;;;;;;7.33;6.60;;;;;;;28.43;29.17;101142.24;1662670;84;20985;-43
2021/08/23 11:15:32;;;;;;;1.98;1.82;;;;;;;28.80;28.39;101144.47;1678106;84;21047;-41
2021/08/23 11:18:03;;;;;;;2.42;2.22;;;;;;;29.06;25.92;101146.70;1672943;85;21138;-41
2021/08/23 11:20:32;;;;;;;4.30;2.33;;;;;;;29.22;27.55;101149.73;1670774;85;20996;-42
2021/08/23 11:23:06;;;;;;;1.70;1.60;;;;;;;29.32;27.10;101156.91;1677856;84;20999;-42
2021/08/23 11:25:41;;;;;;;5.35;1.82;;;;;;;29.47;25.27;101152.08;1678309;84;21044;-42